• Join FlightAware (Why Join?)
  • Login
  • US Flag 
01:46AM EST


 

Airport Tracker/Info


-or-


 

Live Flight TrackerFlight Track Log ✈ N119BJ ✈ 30-Aug-2013 ✈ KHPN - KOXC

Flight Track Log - Related Links

Times and Time Zones

All times are in EDT time to prevent confusion due to time zone crossing. See the N119BJ flight status page for this flight to view local times or setup timezone preferences in your user account.

Time Position Orientation Groundspeed Altitude Reporting Facility
EDT Latitude Longitude Course Direction KTS MPH feet Rate Location/Type
11:47AM 41.0500 -73.7167 21° North 105 121 1,700  Level New York TRACON
11:48AM 41.0667 -73.7500 304° West 121 139 2,300 600 Climbing New York TRACON
11:49AM 41.0833 -73.7833 304° West 125 144 2,900 540 Climbing New York TRACON
11:50AM 41.1000 -73.8167 304° West 125 144 3,400 540 Climbing New York TRACON
11:51AM 41.1333 -73.8333 339° North 128 147 4,000 660 Climbing New York TRACON
11:52AM 41.2055 -73.6139 21° North  Level FlightAware Approximate
11:52AM 41.1500 -73.8000 56° Northeast 134 154 4,800  Level New York TRACON
11:53AM 41.1833 -73.7667 37° Northeast 140 161 5,100 120 Climbing New York TRACON
11:54AM 41.2000 -73.7167 66° East 139 160 5,100  Level New York TRACON
11:55AM 41.2167 -73.6833 56° Northeast 138 159 5,100  Level New York TRACON
11:56AM 41.2500 -73.6333 48° Northeast 142 163 5,100  Level New York TRACON
11:57AM 41.2667 -73.6000 56° Northeast 143 165 5,100  Level New York TRACON
11:58AM 41.2833 -73.5500 66° East 149 171 5,100  Level New York TRACON
11:59AM 41.2667 -73.5000 114° Southeast 153 176 5,100  Level New York TRACON
12:00PM 41.2667 -73.4500 90° East 150 173 5,100  Level New York TRACON
12:01PM 41.2833 -73.4000 66° East 144 166 5,100  Level New York TRACON
12:02PM 41.3000 -73.3500 66° East 140 161 5,100 -60 Level New York TRACON
12:03PM 41.3167 -73.3000 66° East 144 166 5,000 -300 Descending New York TRACON
12:04PM 41.3333 -73.2500 66° East 150 173 4,600 -480 Descending New York TRACON
12:05PM 41.3500 -73.2000 66° East 158 182 4,100 -540 Descending New York TRACON
12:06PM 41.3333 -73.1667 124° Southeast 146 168 3,600 -480 Descending New York TRACON
12:07PM 41.2833 -73.1667 180° South 147 169 3,200 -300 Descending New York TRACON
12:08PM 41.2833 -73.1167 90° East 144 166 3,100 -60 Descending New York TRACON
12:09PM 41.3000 -73.1000 37° Northeast 121 139 3,100  Level New York TRACON
12:10PM 41.3333 -73.1000 360° North 118 136 3,200 -240 Climbing New York TRACON
12:11PM 41.3667 -73.1167 339° North 105 121 2,600 -540 Descending New York TRACON
12:12PM 41.4000 -73.1167 360° North 104 120 2,100 -480 Descending New York TRACON
12:13PM 41.4167 -73.1167 360° North 105 121 1,700 -420 Descending New York TRACON
12:14PM 41.4500 -73.1333 339° North 110 127 1,300 -420 Descending New York TRACON